Time;durP1;ratioP1;P1;durP2;ratioP2;P2;SDS_P1;SDS_P2;PMS_P1;PMS_P2;Temp;Humidity;BMP_temperature;BMP_pressure;BME280_temperature;BME280_humidity;BME280_pressure;Samples;Min_cycle;Max_cycle;Signal;HPM_P1;HPM_P2
2022/05/25 00:00:10;;;;;;;2.33;0.90;;;21.10;61.50;;;;;;5000144;28;20069;-38
2022/05/25 00:02:37;;;;;;;1.05;0.75;;;21.10;61.50;;;;;;5005982;28;20092;-38
2022/05/25 00:05:04;;;;;;;1.50;0.80;;;21.20;61.50;;;;;;5002195;28;20097;-38
2022/05/25 00:07:30;;;;;;;2.08;1.23;;;21.10;61.30;;;;;;4999784;28;20033;-38
2022/05/25 00:09:57;;;;;;;1.73;0.77;;;21.20;61.20;;;;;;5028631;28;20566;-40
2022/05/25 00:12:23;;;;;;;1.38;1.00;;;21.20;61.20;;;;;;5104962;28;20054;-38
2022/05/25 00:14:49;;;;;;;1.45;0.80;;;21.10;60.90;;;;;;5100279;28;20032;-38
2022/05/25 00:17:16;;;;;;;1.70;1.02;;;21.10;61.20;;;;;;5104256;28;20024;-37
2022/05/25 00:20:01;;;;;;;;;;;21.20;61.20;;;;;;5102257;28;20040;-37
2022/05/25 00:22:29;;;;;;;2.75;1.08;;;21.20;61.20;;;;;;5103537;28;20307;-36
2022/05/25 00:24:58;;;;;;;2.15;0.90;;;21.20;61.30;;;;;;5102338;28;20022;-38
2022/05/25 00:27:24;;;;;;;2.75;1.10;;;21.20;61.50;;;;;;5110073;28;20031;-38
2022/05/25 00:29:51;;;;;;;1.73;1.00;;;21.20;61.30;;;;;;5102044;28;20035;-37
2022/05/25 00:32:17;;;;;;;2.70;1.10;;;21.20;60.80;;;;;;5100460;28;20016;-39
2022/05/25 00:34:43;;;;;;;1.80;0.80;;;21.20;60.70;;;;;;5109778;28;20028;-37
2022/05/25 00:37:09;;;;;;;1.85;0.70;;;21.20;60.60;;;;;;5111407;28;20035;-37
2022/05/25 00:39:35;;;;;;;1.50;0.90;;;21.20;60.50;;;;;;5085788;28;20496;-37
2022/05/25 00:42:05;;;;;;;2.10;0.87;;;21.20;60.40;;;;;;5087049;28;20075;-37
2022/05/25 00:44:31;;;;;;;2.85;0.90;;;21.30;60.10;;;;;;5107132;28;20085;-38
2022/05/25 00:46:57;;;;;;;1.75;0.80;;;21.30;60.60;;;;;;5109604;28;20054;-38
2022/05/25 00:49:31;;;;;;;1.98;0.80;;;21.30;60.70;;;;;;5111031;28;20028;-38
2022/05/25 00:52:02;;;;;;;1.92;0.77;;;21.30;60.80;;;;;;5104047;28;20031;-37
2022/05/25 00:54:34;;;;;;;1.08;0.80;;;21.30;60.70;;;;;;5104787;28;20363;-39
2022/05/25 00:57:05;;;;;;;1.75;0.85;;;21.30;60.90;;;;;;5107047;28;20109;-38
2022/05/25 00:59:33;;;;;;;2.15;1.05;;;21.30;60.90;;;;;;5086477;28;20048;-37
2022/05/25 01:02:00;;;;;;;2.72;1.00;;;21.30;60.90;;;;;;5086493;28;20059;-38
2022/05/25 01:04:26;;;;;;;2.05;0.90;;;21.40;61.00;;;;;;5104842;28;20034;-38
2022/05/25 01:07:18;;;;;;;2.42;1.08;;;21.40;61.00;;;;;;5103695;28;20032;-37
2022/05/25 01:09:47;;;;;;;2.53;1.30;;;21.40;61.00;;;;;;5096525;28;20027;-38
2022/05/25 01:12:37;;;;;;;2.13;1.00;;;21.40;61.20;;;;;;5106865;28;20028;-37
2022/05/25 01:15:29;;;;;;;1.92;0.90;;;21.40;61.20;;;;;;5107854;28;20024;-37
2022/05/25 01:18:02;;;;;;;3.20;0.90;;;21.40;61.40;;;;;;5074873;28;20043;-37
2022/05/25 01:20:41;;;;;;;3.08;0.90;;;21.40;61.60;;;;;;5090199;28;20028;-37
2022/05/25 01:24:00;;;;;;;2.28;1.05;;;21.40;61.70;;;;;;5103276;28;20053;-37
2022/05/25 01:26:38;;;;;;;4.27;1.20;;;21.50;61.90;;;;;;5019191;28;20048;-38
2022/05/25 01:29:13;;;;;;;2.25;1.00;;;21.50;62.00;;;;;;5004303;28;20038;-38
2022/05/25 01:31:50;;;;;;;2.17;0.95;;;21.50;62.10;;;;;;5019775;28;20116;-38
2022/05/25 01:34:42;;;;;;;1.93;1.03;;;21.50;62.20;;;;;;5005878;28;20030;-39
2022/05/25 01:37:15;;;;;;;2.53;1.40;;;21.50;62.30;;;;;;4990547;28;20260;-38
2022/05/25 01:39:46;;;;;;;1.95;0.70;;;21.50;62.40;;;;;;5004396;28;20050;-37
2022/05/25 01:42:23;;;;;;;2.72;0.90;;;21.60;62.40;;;;;;4985479;28;20072;-38
2022/05/25 01:44:52;;;;;;;1.88;0.88;;;21.60;62.50;;;;;;4985933;28;20046;-38
2022/05/25 01:47:18;;;;;;;2.13;0.77;;;21.60;62.50;;;;;;5019939;28;20034;-37
2022/05/25 01:50:16;;;;;;;2.00;1.10;;;21.60;62.50;;;;;;4984550;28;20105;-39
2022/05/25 01:52:51;;;;;;;3.03;0.90;;;21.60;62.50;;;;;;5007056;28;20049;-38
2022/05/25 01:55:30;;;;;;;1.67;1.10;;;21.60;62.50;;;;;;4988789;28;20477;-38
2022/05/25 01:57:58;;;;;;;1.80;0.98;;;21.70;62.80;;;;;;5069452;28;20109;-38
2022/05/25 02:00:46;;;;;;;1.40;0.93;;;21.70;62.90;;;;;;5082666;28;20027;-38
2022/05/25 02:19:09;;;;;;;1.95;0.93;;;21.80;62.40;;;;;;5119349;27;20435;-43
2022/05/25 02:21:43;;;;;;;3.85;0.80;;;21.80;62.90;;;;;;5102123;28;20032;-39
2022/05/25 02:24:30;;;;;;;2.33;0.90;;;21.80;62.90;;;;;;5115198;28;20039;-44
2022/05/25 02:27:06;;;;;;;1.98;0.73;;;21.80;62.90;;;;;;5119270;28;20111;-38
2022/05/25 02:29:37;;;;;;;3.28;1.20;;;21.80;62.90;;;;;;5119355;28;20028;-38
2022/05/25 02:32:11;;;;;;;8.20;1.30;;;21.90;63.00;;;;;;5124467;28;20064;-38
2022/05/25 02:34:39;;;;;;;3.53;0.90;;;21.90;63.80;;;;;;5119818;28;20490;-37
2022/05/25 02:37:05;;;;;;;;;;;21.90;64.30;;;;;;5091688;28;20024;-43
2022/05/25 02:39:31;;;;;;;2.92;0.60;;;21.90;63.40;;;;;;5117888;28;19935;-42
2022/05/25 02:41:57;;;;;;;5.70;1.10;;;22.00;61.40;;;;;;5147733;27;20027;-35
2022/05/25 02:44:24;;;;;;;3.23;1.00;;;22.00;61.80;;;;;;5123371;27;20026;-37
2022/05/25 02:46:50;;;;;;;1.75;0.85;;;22.00;62.30;;;;;;5123232;28;20268;-37
2022/05/25 02:49:17;;;;;;;1.40;0.85;;;22.00;62.40;;;;;;5117580;28;20019;-36
2022/05/25 02:51:45;;;;;;;3.93;1.10;;;22.00;62.60;;;;;;5122587;28;20055;-36
2022/05/25 02:54:11;;;;;;;2.70;1.00;;;22.00;62.60;;;;;;5122977;28;20031;-36
2022/05/25 02:56:37;;;;;;;6.53;1.30;;;22.10;62.70;;;;;;5123373;27;20049;-43
2022/05/25 02:59:03;;;;;;;4.97;0.82;;;22.10;63.20;;;;;;5120498;28;20047;-41
2022/05/25 03:01:29;;;;;;;4.50;0.82;;;22.10;63.00;;;;;;5121040;28;20069;-39
2022/05/25 03:03:55;;;;;;;1.85;0.93;;;22.10;63.00;;;;;;5112747;28;20048;-39
2022/05/25 03:06:22;;;;;;;2.17;0.90;;;22.10;63.00;;;;;;5121200;28;20076;-39
2022/05/25 03:08:48;;;;;;;3.55;0.82;;;22.10;62.90;;;;;;5120666;28;20032;-38
2022/05/25 03:11:14;;;;;;;1.75;0.80;;;22.20;62.90;;;;;;5118730;28;20318;-43
2022/05/25 03:13:45;;;;;;;2.35;0.80;;;22.20;62.60;;;;;;5120792;28;20039;-38
2022/05/25 03:16:13;;;;;;;2.15;0.80;;;22.20;61.90;;;;;;5119953;27;20057;-39
2022/05/25 03:18:39;;;;;;;;;;;22.20;62.10;;;;;;5122097;28;20051;-38
2022/05/25 03:21:05;;;;;;;4.43;0.70;;;22.20;62.10;;;;;;5119075;28;19908;-37
2022/05/25 03:23:31;;;;;;;1.58;0.77;;;22.20;62.10;;;;;;5120156;28;20034;-37
2022/05/25 03:25:57;;;;;;;2.17;0.70;;;22.20;62.10;;;;;;5119443;27;20063;-40
2022/05/25 03:28:23;;;;;;;2.58;0.90;;;22.20;62.00;;;;;;5122691;28;20087;-37
2022/05/25 03:30:50;;;;;;;1.85;0.65;;;22.20;62.00;;;;;;5105283;28;20032;-42
2022/05/25 03:33:16;;;;;;;2.13;0.70;;;22.20;61.90;;;;;;5109341;28;20150;-38
2022/05/25 03:35:43;;;;;;;1.70;0.75;;;22.20;61.90;;;;;;5107186;28;20032;-40
2022/05/25 03:38:09;;;;;;;2.35;0.70;;;22.30;61.90;;;;;;5104335;28;20051;-37
2022/05/25 03:40:36;;;;;;;1.92;0.60;;;22.20;61.70;;;;;;5105894;28;20028;-40
2022/05/25 03:43:02;;;;;;;1.40;0.65;;;22.20;61.60;;;;;;5111056;28;20035;-38
2022/05/25 03:45:28;;;;;;;1.13;0.60;;;22.30;61.70;;;;;;5107994;28;20049;-38
2022/05/25 03:47:54;;;;;;;0.93;0.60;;;22.30;61.60;;;;;;5106300;28;20035;-37
2022/05/25 03:50:20;;;;;;;1.63;0.77;;;22.30;61.50;;;;;;5106562;28;20043;-39
2022/05/25 03:52:47;;;;;;;2.70;0.70;;;22.30;61.50;;;;;;5106577;28;20081;-38
2022/05/25 03:55:13;;;;;;;1.73;0.73;;;22.30;61.40;;;;;;5100213;28;20099;-38
2022/05/25 03:57:39;;;;;;;2.28;0.73;;;22.30;61.40;;;;;;5104497;28;20043;-37
2022/05/25 04:00:06;;;;;;;1.15;0.68;;;22.30;61.40;;;;;;5106100;28;20392;-38
2022/05/25 04:02:32;;;;;;;1.30;0.63;;;22.30;61.40;;;;;;5104524;28;20024;-38
2022/05/25 04:05:07;;;;;;;2.00;0.80;;;22.40;61.40;;;;;;5106474;28;20036;-37
2022/05/25 04:07:38;;;;;;;2.67;0.98;;;22.40;61.40;;;;;;5102999;28;20040;-38
2022/05/25 04:10:06;;;;;;;1.90;0.80;;;22.40;61.30;;;;;;5101378;28;20031;-37
2022/05/25 04:12:32;;;;;;;1.85;0.70;;;22.40;61.40;;;;;;5102674;28;20057;-39
2022/05/25 04:14:58;;;;;;;0.97;0.50;;;22.40;61.40;;;;;;5104394;28;20032;-38
2022/05/25 04:17:24;;;;;;;3.45;0.50;;;22.40;61.30;;;;;;5108183;28;20307;-38
2022/05/25 04:19:50;;;;;;;1.20;0.63;;;22.40;61.30;;;;;;5106424;28;20028;-36
2022/05/25 04:22:17;;;;;;;2.42;1.05;;;22.40;61.20;;;;;;5108392;28;20414;-36
2022/05/25 04:24:43;;;;;;;1.38;0.60;;;22.40;61.30;;;;;;5106102;28;20051;-38
2022/05/25 04:27:09;;;;;;;1.85;0.68;;;22.40;61.30;;;;;;5107589;28;20038;-36
2022/05/25 04:29:36;;;;;;;1.52;0.70;;;22.50;61.30;;;;;;5098846;28;20035;-39
2022/05/25 04:32:03;;;;;;;2.72;0.63;;;22.50;61.30;;;;;;5105365;28;20040;-36
2022/05/25 04:34:29;;;;;;;1.38;0.52;;;22.50;61.30;;;;;;5105887;28;20047;-37
2022/05/25 04:37:48;;;;;;;1.05;0.50;;;22.50;61.20;;;;;;5105737;28;20193;-37
2022/05/25 04:39:41;;;;;;;1.33;0.70;;;22.50;61.20;;;;;;5104175;28;20052;-36
2022/05/25 04:42:08;;;;;;;3.00;0.75;;;22.50;61.20;;;;;;5101273;28;20057;-40
2022/05/25 04:44:34;;;;;;;1.90;0.60;;;22.50;61.10;;;;;;5103179;28;20038;-37
2022/05/25 04:47:00;;;;;;;1.25;0.55;;;22.50;61.00;;;;;;5105751;28;20992;-39
2022/05/25 04:49:26;;;;;;;0.73;0.40;;;22.50;61.00;;;;;;5105908;28;20135;-37
2022/05/25 04:51:52;;;;;;;1.40;0.55;;;22.50;61.00;;;;;;5109831;28;20039;-38
2022/05/25 04:54:18;;;;;;;1.10;0.67;;;22.50;60.90;;;;;;5102838;28;20031;-37
2022/05/25 04:59:29;;;;;;;0.88;0.65;;;22.50;60.90;;;;;;5099008;28;20039;-40
2022/05/25 05:01:58;;;;;;;2.33;0.52;;;22.60;61.00;;;;;;5103048;28;20027;-38
2022/05/25 05:04:26;;;;;;;1.17;0.60;;;22.50;60.80;;;;;;5104227;28;20066;-39
2022/05/25 05:06:52;;;;;;;1.33;0.77;;;22.60;60.90;;;;;;5101282;28;20042;-38
2022/05/25 05:09:19;;;;;;;1.33;0.70;;;22.60;60.90;;;;;;5105286;28;20032;-38
2022/05/25 05:11:45;;;;;;;2.33;0.60;;;22.60;61.60;;;;;;5099410;28;20040;-38
2022/05/25 05:14:13;;;;;;;1.23;0.68;;;22.60;60.80;;;;;;5102495;28;20529;-37
2022/05/25 05:16:39;;;;;;;0.52;0.47;;;22.60;60.80;;;;;;5103984;28;20121;-38
2022/05/25 05:19:06;;;;;;;2.58;0.50;;;22.60;60.80;;;;;;5103718;28;20038;-37
2022/05/25 05:21:32;;;;;;;2.00;0.70;;;22.60;60.80;;;;;;5102168;28;20031;-38
2022/05/25 05:23:58;;;;;;;1.00;0.60;;;22.60;60.80;;;;;;5105355;28;20054;-42
2022/05/25 05:26:24;;;;;;;1.90;0.70;;;22.60;60.80;;;;;;5101188;28;20024;-37
2022/05/25 05:28:53;;;;;;;0.98;0.57;;;22.60;60.80;;;;;;5108939;28;20031;-38
2022/05/25 05:31:19;;;;;;;1.00;0.60;;;22.60;60.80;;;;;;5104412;28;20035;-41
2022/05/25 05:33:45;;;;;;;1.58;0.60;;;22.60;60.90;;;;;;5110582;28;20024;-37
2022/05/25 05:36:16;;;;;;;2.70;0.65;;;22.60;60.90;;;;;;5106088;28;20032;-38
2022/05/25 05:39:05;;;;;;;1.17;0.60;;;22.60;60.90;;;;;;5099529;28;20044;-39
2022/05/25 05:41:35;;;;;;;1.30;0.60;;;22.60;61.00;;;;;;5105175;28;20114;-39
2022/05/25 05:44:01;;;;;;;0.85;0.55;;;22.60;61.10;;;;;;5102712;28;20035;-42
2022/05/25 05:46:27;;;;;;;1.40;0.55;;;22.60;61.10;;;;;;5101055;28;20088;-37
2022/05/25 05:48:53;;;;;;;1.15;0.60;;;22.60;61.90;;;;;;5105188;28;20043;-38
2022/05/25 05:51:19;;;;;;;1.75;0.73;;;22.60;61.10;;;;;;5107634;28;20028;-39
2022/05/25 05:53:46;;;;;;;0.85;0.55;;;22.70;61.20;;;;;;5107437;28;20035;-38
2022/05/25 05:56:12;;;;;;;2.03;0.95;;;22.70;61.30;;;;;;5101959;28;20024;-38
2022/05/25 05:58:38;;;;;;;0.83;0.50;;;22.70;61.40;;;;;;5106450;28;20062;-38
2022/05/25 06:01:04;;;;;;;1.08;0.60;;;22.60;61.40;;;;;;5093344;28;20028;-37
2022/05/25 06:03:30;;;;;;;1.10;0.60;;;22.70;61.40;;;;;;5105784;28;20032;-39
2022/05/25 06:05:56;;;;;;;1.67;0.57;;;22.70;61.40;;;;;;5105353;28;20024;-37
2022/05/25 06:08:27;;;;;;;0.65;0.47;;;22.70;61.40;;;;;;5096510;28;20122;-37
2022/05/25 06:10:54;;;;;;;1.40;0.60;;;22.70;61.40;;;;;;5098189;28;20051;-38
2022/05/25 06:13:20;;;;;;;1.00;0.60;;;22.70;61.40;;;;;;5099515;28;20023;-42
2022/05/25 06:21:17;;;;;;;1.73;0.90;;;22.70;61.30;;;;;;5100346;28;20089;-40
2022/05/25 06:23:44;;;;;;;0.93;0.55;;;22.70;61.20;;;;;;5101524;28;20054;-39
2022/05/25 06:26:10;;;;;;;0.88;0.57;;;22.70;61.20;;;;;;5104532;28;20051;-37
2022/05/25 06:28:36;;;;;;;1.10;0.60;;;22.70;61.90;;;;;;5103920;28;20028;-38
2022/05/25 06:31:02;;;;;;;1.60;0.60;;;22.70;61.20;;;;;;5099748;28;20023;-36
2022/05/25 06:33:28;;;;;;;0.80;0.50;;;22.70;61.20;;;;;;5101924;28;20020;-37
2022/05/25 06:35:56;;;;;;;1.00;0.68;;;22.70;61.30;;;;;;5102620;28;20065;-36
2022/05/25 06:38:22;;;;;;;2.22;0.77;;;22.70;61.20;;;;;;5098743;28;20100;-36
2022/05/25 06:40:48;;;;;;;0.85;0.52;;;22.70;61.20;;;;;;5097692;28;20051;-37
2022/05/25 06:43:14;;;;;;;1.05;0.55;;;22.70;61.10;;;;;;5102231;28;20031;-37
2022/05/25 06:45:40;;;;;;;1.90;0.70;;;22.70;61.10;;;;;;5100544;28;20036;-37
2022/05/25 06:48:07;;;;;;;2.28;0.77;;;22.70;61.20;;;;;;5101928;28;20092;-42
2022/05/25 06:50:34;;;;;;;1.88;0.73;;;22.70;61.30;;;;;;5102487;28;20052;-37
2022/05/25 06:53:00;;;;;;;1.95;0.60;;;22.70;61.20;;;;;;5108706;28;20035;-39
2022/05/25 06:55:26;;;;;;;1.95;0.88;;;22.70;61.20;;;;;;5103121;28;20016;-39
2022/05/25 06:57:52;;;;;;;4.45;0.50;;;22.70;61.20;;;;;;5105404;28;20040;-38
2022/05/25 07:00:19;;;;;;;2.05;0.70;;;22.70;61.30;;;;;;5099671;28;20016;-40
2022/05/25 07:02:45;;;;;;;1.02;0.60;;;22.70;61.20;;;;;;5101631;28;20032;-38
2022/05/25 07:05:11;;;;;;;2.55;0.60;;;22.70;61.30;;;;;;5107748;28;20032;-38
2022/05/25 07:07:38;;;;;;;1.25;0.60;;;22.70;61.30;;;;;;5101420;28;20124;-40
2022/05/25 07:10:05;;;;;;;1.75;0.73;;;22.70;61.30;;;;;;5107707;28;20042;-37
2022/05/25 07:12:32;;;;;;;1.15;0.55;;;22.70;61.40;;;;;;5104137;28;20047;-37
2022/05/25 07:14:58;;;;;;;1.38;0.68;;;22.80;61.50;;;;;;5105887;28;20636;-36
2022/05/25 07:17:24;;;;;;;3.57;0.73;;;22.70;61.50;;;;;;5101852;28;20053;-36
2022/05/25 07:19:50;;;;;;;1.30;0.70;;;22.70;61.50;;;;;;5107049;28;20555;-38
2022/05/25 07:22:16;;;;;;;1.67;0.70;;;22.80;61.60;;;;;;5103867;28;20126;-37
2022/05/25 07:24:43;;;;;;;0.95;0.68;;;22.80;61.70;;;;;;5103594;28;20039;-40
2022/05/25 07:27:09;;;;;;;2.05;0.60;;;22.80;61.60;;;;;;5102142;28;20094;-42
2022/05/25 07:29:35;;;;;;;1.35;0.57;;;22.80;61.70;;;;;;5102431;28;20468;-42
2022/05/25 07:32:03;;;;;;;0.68;0.47;;;22.70;61.70;;;;;;5102173;28;20031;-41
2022/05/25 07:34:33;;;;;;;0.93;0.43;;;22.70;61.70;;;;;;5098179;28;20024;-40
2022/05/25 07:37:05;;;;;;;1.27;0.60;;;22.80;61.80;;;;;;5103311;28;20044;-43
2022/05/25 07:39:36;;;;;;;1.92;0.70;;;22.70;61.80;;;;;;5106395;28;20039;-45
2022/05/25 07:42:03;;;;;;;1.35;0.60;;;22.70;62.60;;;;;;5103851;28;20043;-37
2022/05/25 07:44:38;;;;;;;1.75;0.77;;;22.80;61.90;;;;;;5104523;28;20030;-38
2022/05/25 07:47:04;;;;;;;1.77;0.60;;;22.80;62.70;;;;;;5106828;28;20050;-38
2022/05/25 07:49:30;;;;;;;1.60;0.85;;;22.80;62.00;;;;;;5110879;28;20056;-37
2022/05/25 07:51:57;;;;;;;1.13;0.77;;;22.80;62.00;;;;;;5104610;28;20061;-39
2022/05/25 07:54:23;;;;;;;0.88;0.68;;;22.80;62.00;;;;;;5100236;28;20043;-38
2022/05/25 07:56:50;;;;;;;1.13;0.70;;;22.80;62.00;;;;;;5100993;28;20020;-43
2022/05/25 07:59:16;;;;;;;1.38;0.50;;;22.80;62.00;;;;;;5105922;28;20043;-39
2022/05/25 08:07:17;;;;;;;1.20;0.60;;;22.80;62.10;;;;;;5105208;28;20031;-37
2022/05/25 08:09:43;;;;;;;1.73;0.82;;;22.80;62.10;;;;;;5098292;28;20032;-38
2022/05/25 08:12:09;;;;;;;1.10;0.63;;;22.80;62.10;;;;;;5106849;28;20050;-37
2022/05/25 08:14:36;;;;;;;2.60;0.67;;;22.80;62.10;;;;;;5102690;28;20253;-37
2022/05/25 08:17:04;;;;;;;0.93;0.60;;;22.90;62.20;;;;;;5106965;28;20052;-42
2022/05/25 08:19:30;;;;;;;2.42;0.50;;;22.80;62.00;;;;;;5104402;28;20031;-38
2022/05/25 08:21:57;;;;;;;1.40;0.70;;;22.90;62.10;;;;;;5105217;28;20042;-36
2022/05/25 08:24:23;;;;;;;2.78;0.82;;;22.90;62.10;;;;;;5104969;28;20124;-35
2022/05/25 08:26:49;;;;;;;1.15;0.70;;;22.90;62.10;;;;;;5103187;28;20039;-37
2022/05/25 08:29:15;;;;;;;3.00;0.60;;;22.90;62.10;;;;;;5105122;28;20015;-36
2022/05/25 08:31:41;;;;;;;2.85;0.70;;;22.90;62.10;;;;;;5102758;28;20118;-37
2022/05/25 08:34:07;;;;;;;2.50;0.65;;;22.90;62.10;;;;;;5107331;28;20043;-37
2022/05/25 08:36:34;;;;;;;1.17;0.70;;;22.90;62.10;;;;;;5101779;28;20043;-36
2022/05/25 08:39:00;;;;;;;2.17;0.60;;;23.00;62.20;;;;;;5107891;28;20043;-37
2022/05/25 08:41:35;;;;;;;2.13;0.90;;;23.00;62.20;;;;;;5105267;28;20028;-37
2022/05/25 08:44:01;;;;;;;1.40;0.73;;;23.00;62.20;;;;;;5102590;28;20027;-36
2022/05/25 08:46:29;;;;;;;1.55;0.60;;;23.00;62.20;;;;;;5104141;28;20063;-37
2022/05/25 08:48:56;;;;;;;1.45;0.73;;;22.90;62.10;;;;;;5102272;28;20030;-37
2022/05/25 08:51:25;;;;;;;1.67;0.68;;;22.90;62.10;;;;;;5087474;28;20026;-36
2022/05/25 08:53:52;;;;;;;0.80;0.50;;;22.90;62.10;;;;;;5099606;28;20052;-37
2022/05/25 08:56:45;;;;;;;1.77;0.60;;;22.90;62.20;;;;;;5107520;28;20036;-37
2022/05/25 08:59:25;;;;;;;0.88;0.50;;;23.00;62.30;;;;;;5105432;28;20040;-37
2022/05/25 09:01:55;;;;;;;1.27;0.63;;;23.00;62.30;;;;;;5106520;28;20092;-37
2022/05/25 09:04:32;;;;;;;1.23;0.70;;;22.90;62.20;;;;;;5105500;28;20671;-38
2022/05/25 09:06:58;;;;;;;;;;;22.90;62.20;;;;;;5105296;28;20047;-37
2022/05/25 09:09:38;;;;;;;1.05;0.60;;;22.90;62.20;;;;;;5106863;27;19967;-37
2022/05/25 09:12:38;;;;;;;1.63;0.75;;;22.90;62.30;;;;;;5104565;28;20088;-38
2022/05/25 09:15:20;;;;;;;2.08;0.60;;;23.00;62.40;;;;;;5105454;28;20040;-37
2022/05/25 09:18:03;;;;;;;1.10;0.70;;;23.00;62.40;;;;;;5084169;28;20240;-37
2022/05/25 09:20:32;;;;;;;0.70;0.50;;;22.90;62.30;;;;;;5100206;28;20034;-37
2022/05/25 09:23:19;;;;;;;1.42;0.57;;;23.00;62.40;;;;;;5046289;28;20189;-41
2022/05/25 09:25:46;;;;;;;2.25;0.85;;;23.00;62.40;;;;;;5044430;28;20043;-37
2022/05/25 09:28:20;;;;;;;0.90;0.60;;;23.00;62.40;;;;;;5023516;28;20045;-37
2022/05/25 09:30:50;;;;;;;0.85;0.60;;;23.00;62.40;;;;;;5062903;28;20164;-37
2022/05/25 09:33:16;;;;;;;1.20;0.75;;;23.00;62.40;;;;;;5079309;28;20029;-37
2022/05/25 09:35:45;;;;;;;1.15;0.70;;;23.00;62.30;;;;;;5058781;28;21010;-37
2022/05/25 09:38:36;;;;;;;0.95;0.60;;;23.00;62.30;;;;;;5041245;28;20124;-36
2022/05/25 09:41:06;;;;;;;0.98;0.80;;;23.00;62.40;;;;;;5018903;28;20455;-37
2022/05/25 09:43:32;;;;;;;1.05;0.68;;;23.00;62.30;;;;;;5060087;28;20029;-37
2022/05/25 09:45:59;;;;;;;1.05;0.50;;;23.00;62.40;;;;;;5062322;28;20043;-37
2022/05/25 09:48:26;;;;;;;;;;;23.00;62.30;;;;;;5067817;28;20033;-37
2022/05/25 09:51:20;;;;;;;1.23;0.70;;;23.00;62.40;;;;;;5060967;28;19920;-37
2022/05/25 09:54:13;;;;;;;1.08;0.70;;;23.00;62.40;;;;;;5049051;28;20040;-37
2022/05/25 09:56:45;;;;;;;0.85;0.40;;;23.00;62.40;;;;;;5037351;28;20044;-37
2022/05/25 09:59:14;;;;;;;2.92;0.63;;;23.00;62.40;;;;;;5043330;28;20039;-37
2022/05/25 10:01:45;;;;;;;1.52;0.85;;;23.00;62.40;;;;;;5117556;27;20042;-37
2022/05/25 10:04:14;;;;;;;1.05;0.60;;;23.00;62.40;;;;;;5102314;28;20093;-38
2022/05/25 10:06:50;;;;;;;0.93;0.50;;;23.00;62.40;;;;;;5102573;28;20062;-38
2022/05/25 10:09:22;;;;;;;0.80;0.47;;;23.00;62.50;;;;;;5106360;28;20666;-37
2022/05/25 10:11:50;;;;;;;1.70;0.73;;;23.00;62.50;;;;;;5107927;28;20093;-36
2022/05/25 10:14:29;;;;;;;1.30;0.60;;;23.00;62.60;;;;;;5118740;27;20042;-37
2022/05/25 10:16:57;;;;;;;1.00;0.60;;;23.00;62.60;;;;;;5101092;28;20039;-37
2022/05/25 10:19:24;;;;;;;1.08;0.68;;;23.10;62.70;;;;;;5105334;28;20043;-40
2022/05/25 10:21:58;;;;;;;1.02;0.70;;;23.00;62.70;;;;;;5091714;28;20094;-46
2022/05/25 10:24:31;;;;;;;1.67;0.60;;;23.00;63.00;;;;;;5104878;28;20032;-42
2022/05/25 10:26:58;;;;;;;4.55;1.08;;;23.00;62.70;;;;;;5097650;28;20267;-49
2022/05/25 10:38:28;;;;;;;7.97;1.52;;;23.10;62.50;;;;;;5102788;28;20066;-48
2022/05/25 10:41:37;;;;;;;4.28;1.15;;;23.10;62.50;;;;;;5105956;28;20024;-45
2022/05/25 10:43:45;;;;;;;6.32;1.58;;;23.00;62.30;;;;;;5099914;28;20062;-62
2022/05/25 10:46:11;;;;;;;15.98;2.00;;;23.00;62.40;;;;;;5100240;28;20025;-38
2022/05/25 10:48:57;;;;;;;12.52;2.03;;;23.00;62.90;;;;;;5107393;28;20035;-38
2022/05/25 10:51:31;;;;;;;9.32;1.65;;;23.00;62.80;;;;;;5093483;28;20036;-37
2022/05/25 10:56:54;;;;;;;5.97;1.65;;;23.00;62.70;;;;;;5102282;28;20050;-38
2022/05/25 10:59:51;;;;;;;6.25;1.50;;;23.10;62.70;;;;;;5107512;28;20417;-38
2022/05/25 11:02:56;;;;;;;6.22;1.38;;;23.10;62.70;;;;;;5108287;28;20161;-37
2022/05/25 11:05:52;;;;;;;6.65;1.50;;;23.00;62.60;;;;;;5106950;28;20030;-38
2022/05/25 11:08:30;;;;;;;7.68;1.65;;;23.00;62.50;;;;;;5115157;28;20048;-38
2022/05/25 11:11:06;;;;;;;;;;;23.00;62.50;;;;;;5112718;28;20028;-37
2022/05/25 11:13:53;;;;;;;6.07;1.25;;;23.00;62.50;;;;;;5107442;28;19930;-37
2022/05/25 11:16:42;;;;;;;4.90;1.40;;;23.00;62.50;;;;;;5109070;28;20023;-37
2022/05/25 11:19:44;;;;;;;5.13;1.67;;;23.00;62.40;;;;;;5110232;28;20054;-38
2022/05/25 11:22:39;;;;;;;4.82;1.40;;;23.00;62.40;;;;;;5107247;28;20061;-37
2022/05/25 11:25:20;;;;;;;3.85;1.38;;;23.00;62.40;;;;;;5108078;28;20024;-37
2022/05/25 11:27:55;;;;;;;5.35;1.17;;;23.00;62.40;;;;;;5105557;28;20028;-37
2022/05/25 11:30:35;;;;;;;7.70;1.48;;;23.00;62.40;;;;;;5102017;28;20036;-37
2022/05/25 11:33:09;;;;;;;3.92;1.42;;;23.00;62.40;;;;;;5108141;28;20032;-37
2022/05/25 11:36:12;;;;;;;3.65;1.33;;;23.00;62.40;;;;;;5108621;28;20069;-37
2022/05/25 11:39:10;;;;;;;2.25;1.30;;;23.00;62.40;;;;;;5108579;28;20043;-37
2022/05/25 11:42:03;;;;;;;3.43;1.20;;;22.90;62.30;;;;;;5083314;28;20040;-37
2022/05/25 11:44:41;;;;;;;4.22;1.40;;;22.90;62.40;;;;;;5107320;28;20043;-37
2022/05/25 11:47:30;;;;;;;4.18;1.60;;;23.00;62.40;;;;;;5109270;28;20050;-37
2022/05/25 11:50:17;;;;;;;4.07;1.00;;;23.00;62.40;;;;;;5107567;28;20024;-37
2022/05/25 11:53:06;;;;;;;4.35;1.23;;;23.00;63.20;;;;;;5067829;28;20074;-37
2022/05/25 11:56:00;;;;;;;3.03;0.85;;;22.90;62.40;;;;;;5106214;28;20542;-37
2022/05/25 11:58:45;;;;;;;2.85;1.05;;;22.90;62.40;;;;;;5105727;28;20039;-37
2022/05/25 12:01:24;;;;;;;4.18;1.30;;;23.00;62.40;;;;;;5104336;28;20044;-37
2022/05/25 12:04:29;;;;;;;3.22;1.27;;;22.90;62.40;;;;;;5102511;28;20024;-37
2022/05/25 12:07:10;;;;;;;3.30;1.65;;;22.90;62.40;;;;;;5037652;28;20061;-37
2022/05/25 12:09:44;;;;;;;3.60;1.42;;;23.00;62.50;;;;;;5039045;28;20037;-37
2022/05/25 12:12:21;;;;;;;2.92;1.27;;;22.90;62.40;;;;;;5039111;28;20029;-37
2022/05/25 12:15:35;;;;;;;2.77;1.03;;;22.90;62.40;;;;;;5022859;28;20096;-37
2022/05/25 12:18:12;;;;;;;3.03;1.30;;;22.90;62.40;;;;;;5031871;28;20080;-37
2022/05/25 12:20:59;;;;;;;3.97;1.27;;;22.90;62.40;;;;;;5023479;28;20032;-37
2022/05/25 12:23:29;;;;;;;5.88;1.20;;;22.90;62.40;;;;;;5038697;28;20041;-37
2022/05/25 12:25:57;;;;;;;2.10;1.05;;;22.90;62.50;;;;;;5036817;28;20030;-37
2022/05/25 12:28:26;;;;;;;3.42;1.10;;;22.90;62.40;;;;;;5039217;28;20038;-37
2022/05/25 12:30:57;;;;;;;5.20;0.93;;;22.90;62.50;;;;;;5021873;28;20080;-37
2022/05/25 12:33:24;;;;;;;2.22;0.93;;;22.90;62.50;;;;;;5022985;28;20041;-37
2022/05/25 12:35:50;;;;;;;2.67;1.02;;;22.80;62.50;;;;;;5022390;28;20047;-37
2022/05/25 12:38:18;;;;;;;3.78;1.10;;;22.90;62.60;;;;;;5039116;28;20045;-37
2022/05/25 12:40:48;;;;;;;1.98;1.10;;;22.90;62.60;;;;;;5037213;28;20415;-37
2022/05/25 12:43:39;;;;;;;3.85;0.93;;;22.90;62.60;;;;;;5072813;28;20028;-37
2022/05/25 12:48:59;;;;;;;2.45;1.20;;;22.90;62.60;;;;;;5102714;28;20062;-36
2022/05/25 12:51:43;;;;;;;2.67;1.10;;;22.80;62.50;;;;;;5103367;28;20049;-36
2022/05/25 12:54:45;;;;;;;2.10;0.80;;;22.80;62.60;;;;;;5104935;28;20035;-36
2022/05/25 12:57:22;;;;;;;2.25;0.80;;;22.80;62.50;;;;;;5038352;28;20037;-36
2022/05/25 12:59:50;;;;;;;2.25;1.02;;;22.80;62.50;;;;;;5038237;28;20038;-36
2022/05/25 13:02:28;;;;;;;2.03;1.08;;;22.80;62.60;;;;;;5037751;28;20060;-36
2022/05/25 13:04:56;;;;;;;2.63;0.90;;;22.80;62.60;;;;;;5037787;28;20041;-36
2022/05/25 13:07:37;;;;;;;2.53;1.17;;;22.80;62.60;;;;;;5019992;28;20033;-36
2022/05/25 13:10:11;;;;;;;2.78;1.25;;;22.80;62.60;;;;;;5006763;28;20060;-36
2022/05/25 13:12:39;;;;;;;2.33;1.02;;;22.80;62.60;;;;;;5022109;28;20052;-37
2022/05/25 13:15:18;;;;;;;1.10;0.90;;;22.80;62.60;;;;;;5037714;28;20030;-37
2022/05/25 13:17:47;;;;;;;3.58;0.93;;;22.80;62.60;;;;;;5037419;28;20049;-36
2022/05/25 13:20:48;;;;;;;3.47;1.20;;;22.80;62.60;;;;;;5038776;28;20045;-37
2022/05/25 13:23:51;;;;;;;1.20;0.80;;;22.80;62.60;;;;;;5037464;28;20029;-37
2022/05/25 13:26:19;;;;;;;2.17;1.08;;;22.80;62.70;;;;;;5037840;28;20030;-37
2022/05/25 13:28:54;;;;;;;2.30;1.10;;;22.70;62.60;;;;;;5021859;28;20156;-37
2022/05/25 13:31:38;;;;;;;2.92;0.95;;;22.80;62.70;;;;;;5066744;28;20069;-37
2022/05/25 13:34:09;;;;;;;2.30;1.00;;;22.80;62.70;;;;;;5104678;28;20032;-36
2022/05/25 13:36:41;;;;;;;1.73;1.10;;;22.80;62.70;;;;;;5101090;28;20062;-37
2022/05/25 13:39:07;;;;;;;3.30;1.17;;;22.70;62.60;;;;;;5105042;28;20040;-37
2022/05/25 13:41:41;;;;;;;1.25;1.10;;;22.70;62.60;;;;;;5110495;28;20054;-36
2022/05/25 13:44:14;;;;;;;1.67;1.20;;;22.70;63.40;;;;;;5104946;28;20031;-37
2022/05/25 13:46:58;;;;;;;2.60;1.10;;;22.70;62.70;;;;;;5100376;28;20043;-37
2022/05/25 13:49:52;;;;;;;1.77;0.90;;;22.70;62.70;;;;;;5101250;28;20055;-37
2022/05/25 13:52:23;;;;;;;1.95;1.20;;;22.70;62.70;;;;;;5096709;28;20040;-37
2022/05/25 13:54:54;;;;;;;1.73;1.10;;;22.70;62.60;;;;;;5103537;28;20031;-36
2022/05/25 13:57:40;;;;;;;2.10;1.00;;;22.70;62.70;;;;;;5105784;28;20036;-36